sensor_id;sensor_type;location;lat;lon;timestamp;P1;durP1;ratioP1;P2;durP2;ratioP2
21589;SDS011;10957;50.968;6.828;2022-10-26T00:04:34;8.40;;;8.00;;
21589;SDS011;10957;50.968;6.828;2022-10-26T00:09:35;8.35;;;7.95;;
21589;SDS011;10957;50.968;6.828;2022-10-26T00:14:36;8.32;;;7.93;;
21589;SDS011;10957;50.968;6.828;2022-10-26T00:19:36;8.30;;;7.90;;
21589;SDS011;10957;50.968;6.828;2022-10-26T00:24:37;8.32;;;7.93;;
21589;SDS011;10957;50.968;6.828;2022-10-26T00:29:38;7.80;;;7.40;;
21589;SDS011;10957;50.968;6.828;2022-10-26T00:34:39;8.40;;;8.00;;
21589;SDS011;10957;50.968;6.828;2022-10-26T00:39:39;8.50;;;8.10;;
21589;SDS011;10957;50.968;6.828;2022-10-26T00:45:03;8.18;;;7.78;;
21589;SDS011;10957;50.968;6.828;2022-10-26T00:50:20;7.90;;;7.50;;
21589;SDS011;10957;50.968;6.828;2022-10-26T00:55:25;7.93;;;7.53;;
21589;SDS011;10957;50.968;6.828;2022-10-26T01:00:28;8.80;;;8.40;;
21589;SDS011;10957;50.968;6.828;2022-10-26T01:05:29;8.27;;;7.88;;
21589;SDS011;10957;50.968;6.828;2022-10-26T01:10:31;7.10;;;6.80;;
21589;SDS011;10957;50.968;6.828;2022-10-26T01:26:33;7.43;;;7.13;;
21589;SDS011;10957;50.968;6.828;2022-10-26T01:32:05;7.13;;;6.80;;
21589;SDS011;10957;50.968;6.828;2022-10-26T01:37:12;7.43;;;7.13;;
21589;SDS011;10957;50.968;6.828;2022-10-26T01:42:16;8.07;;;7.68;;
21589;SDS011;10957;50.968;6.828;2022-10-26T01:47:18;7.38;;;7.07;;
21589;SDS011;10957;50.968;6.828;2022-10-26T01:52:22;7.38;;;7.07;;
21589;SDS011;10957;50.968;6.828;2022-10-26T01:57:23;7.40;;;7.10;;
21589;SDS011;10957;50.968;6.828;2022-10-26T02:13:38;7.63;;;7.22;;
21589;SDS011;10957;50.968;6.828;2022-10-26T02:19:00;7.22;;;6.93;;
21589;SDS011;10957;50.968;6.828;2022-10-26T02:24:09;7.18;;;6.88;;
21589;SDS011;10957;50.968;6.828;2022-10-26T02:29:12;7.55;;;7.25;;
21589;SDS011;10957;50.968;6.828;2022-10-26T02:34:19;7.78;;;7.38;;
21589;SDS011;10957;50.968;6.828;2022-10-26T02:39:23;7.10;;;6.80;;
21589;SDS011;10957;50.968;6.828;2022-10-26T02:44:26;7.20;;;6.90;;
21589;SDS011;10957;50.968;6.828;2022-10-26T02:49:35;7.40;;;7.03;;
21589;SDS011;10957;50.968;6.828;2022-10-26T03:00:07;7.00;;;6.70;;
21589;SDS011;10957;50.968;6.828;2022-10-26T03:05:13;6.90;;;6.60;;
21589;SDS011;10957;50.968;6.828;2022-10-26T03:15:25;6.50;;;6.20;;
21589;SDS011;10957;50.968;6.828;2022-10-26T03:20:26;6.65;;;6.35;;
21589;SDS011;10957;50.968;6.828;2022-10-26T03:25:26;6.90;;;6.60;;
21589;SDS011;10957;50.968;6.828;2022-10-26T03:30:28;8.55;;;8.15;;
21589;SDS011;10957;50.968;6.828;2022-10-26T03:35:29;7.03;;;6.72;;
21589;SDS011;10957;50.968;6.828;2022-10-26T03:40:30;7.00;;;6.70;;
21589;SDS011;10957;50.968;6.828;2022-10-26T03:45:31;8.88;;;8.48;;
21589;SDS011;10957;50.968;6.828;2022-10-26T03:50:31;7.00;;;6.70;;
21589;SDS011;10957;50.968;6.828;2022-10-26T03:55:32;7.10;;;6.80;;
21589;SDS011;10957;50.968;6.828;2022-10-26T04:00:33;9.38;;;8.88;;
21589;SDS011;10957;50.968;6.828;2022-10-26T04:05:34;7.70;;;7.30;;
21589;SDS011;10957;50.968;6.828;2022-10-26T04:10:34;7.30;;;7.00;;
21589;SDS011;10957;50.968;6.828;2022-10-26T04:15:35;7.28;;;6.97;;
21589;SDS011;10957;50.968;6.828;2022-10-26T04:20:36;8.10;;;7.70;;
21589;SDS011;10957;50.968;6.828;2022-10-26T04:25:38;7.35;;;7.05;;
21589;SDS011;10957;50.968;6.828;2022-10-26T04:30:39;8.63;;;8.23;;
21589;SDS011;10957;50.968;6.828;2022-10-26T04:35:40;7.05;;;6.70;;
21589;SDS011;10957;50.968;6.828;2022-10-26T04:40:42;7.18;;;6.82;;
21589;SDS011;10957;50.968;6.828;2022-10-26T04:45:42;7.57;;;7.20;;
21589;SDS011;10957;50.968;6.828;2022-10-26T04:50:43;7.82;;;7.43;;
21589;SDS011;10957;50.968;6.828;2022-10-26T04:55:44;7.90;;;7.50;;
21589;SDS011;10957;50.968;6.828;2022-10-26T05:00:44;8.02;;;7.63;;
21589;SDS011;10957;50.968;6.828;2022-10-26T05:05:45;8.18;;;7.78;;
21589;SDS011;10957;50.968;6.828;2022-10-26T05:10:49;8.55;;;8.15;;
21589;SDS011;10957;50.968;6.828;2022-10-26T05:15:52;7.93;;;7.53;;
21589;SDS011;10957;50.968;6.828;2022-10-26T05:20:53;7.80;;;7.40;;
21589;SDS011;10957;50.968;6.828;2022-10-26T05:25:54;7.40;;;7.10;;
21589;SDS011;10957;50.968;6.828;2022-10-26T05:30:57;7.40;;;7.10;;
21589;SDS011;10957;50.968;6.828;2022-10-26T05:35:57;8.10;;;7.70;;
21589;SDS011;10957;50.968;6.828;2022-10-26T05:40:58;7.50;;;7.20;;
21589;SDS011;10957;50.968;6.828;2022-10-26T05:46:00;7.97;;;7.57;;
21589;SDS011;10957;50.968;6.828;2022-10-26T05:51:01;7.78;;;7.38;;
21589;SDS011;10957;50.968;6.828;2022-10-26T05:56:02;7.90;;;7.50;;
21589;SDS011;10957;50.968;6.828;2022-10-26T06:01:23;7.60;;;7.20;;
21589;SDS011;10957;50.968;6.828;2022-10-26T06:06:41;7.70;;;7.30;;
21589;SDS011;10957;50.968;6.828;2022-10-26T06:11:45;8.63;;;8.23;;
21589;SDS011;10957;50.968;6.828;2022-10-26T06:16:52;7.72;;;7.32;;
21589;SDS011;10957;50.968;6.828;2022-10-26T06:27:34;8.68;;;8.20;;
21589;SDS011;10957;50.968;6.828;2022-10-26T06:32:59;8.25;;;7.82;;
21589;SDS011;10957;50.968;6.828;2022-10-26T06:38:05;8.05;;;7.65;;
21589;SDS011;10957;50.968;6.828;2022-10-26T06:43:19;8.10;;;7.70;;
21589;SDS011;10957;50.968;6.828;2022-10-26T06:48:24;8.50;;;8.10;;
21589;SDS011;10957;50.968;6.828;2022-10-26T06:53:41;8.75;;;8.35;;
21589;SDS011;10957;50.968;6.828;2022-10-26T06:58:58;8.00;;;7.60;;
21589;SDS011;10957;50.968;6.828;2022-10-26T07:04:05;8.00;;;7.60;;
21589;SDS011;10957;50.968;6.828;2022-10-26T07:09:06;8.18;;;7.78;;
21589;SDS011;10957;50.968;6.828;2022-10-26T07:14:07;8.40;;;8.00;;
21589;SDS011;10957;50.968;6.828;2022-10-26T07:19:08;8.35;;;7.95;;
21589;SDS011;10957;50.968;6.828;2022-10-26T07:24:08;8.50;;;8.10;;
21589;SDS011;10957;50.968;6.828;2022-10-26T07:29:09;8.70;;;8.30;;
21589;SDS011;10957;50.968;6.828;2022-10-26T07:34:10;8.30;;;7.90;;
21589;SDS011;10957;50.968;6.828;2022-10-26T07:39:10;8.65;;;8.25;;
21589;SDS011;10957;50.968;6.828;2022-10-26T07:44:11;9.25;;;8.75;;
21589;SDS011;10957;50.968;6.828;2022-10-26T07:49:12;9.20;;;8.70;;
21589;SDS011;10957;50.968;6.828;2022-10-26T07:54:13;8.80;;;8.40;;
21589;SDS011;10957;50.968;6.828;2022-10-26T07:59:13;8.18;;;7.78;;
21589;SDS011;10957;50.968;6.828;2022-10-26T08:04:14;9.27;;;8.68;;
21589;SDS011;10957;50.968;6.828;2022-10-26T08:09:15;8.00;;;7.60;;
21589;SDS011;10957;50.968;6.828;2022-10-26T08:14:16;8.23;;;7.82;;
21589;SDS011;10957;50.968;6.828;2022-10-26T08:19:17;7.78;;;7.38;;
21589;SDS011;10957;50.968;6.828;2022-10-26T08:24:18;7.30;;;7.00;;
21589;SDS011;10957;50.968;6.828;2022-10-26T08:29:19;7.40;;;7.00;;
21589;SDS011;10957;50.968;6.828;2022-10-26T08:34:20;7.72;;;7.32;;
21589;SDS011;10957;50.968;6.828;2022-10-26T08:39:20;7.40;;;7.05;;
21589;SDS011;10957;50.968;6.828;2022-10-26T08:44:23;7.18;;;6.88;;
21589;SDS011;10957;50.968;6.828;2022-10-26T08:49:38;7.13;;;6.82;;
21589;SDS011;10957;50.968;6.828;2022-10-26T08:54:56;7.60;;;7.20;;
21589;SDS011;10957;50.968;6.828;2022-10-26T09:00:03;7.35;;;7.05;;
21589;SDS011;10957;50.968;6.828;2022-10-26T09:26:26;7.70;;;7.30;;
21589;SDS011;10957;50.968;6.828;2022-10-26T09:31:38;12.20;;;7.63;;
21589;SDS011;10957;50.968;6.828;2022-10-26T09:36:41;7.00;;;6.70;;
21589;SDS011;10957;50.968;6.828;2022-10-26T09:46:50;7.32;;;6.95;;
21589;SDS011;10957;50.968;6.828;2022-10-26T09:52:04;7.10;;;6.80;;
21589;SDS011;10957;50.968;6.828;2022-10-26T09:57:05;6.70;;;6.40;;
21589;SDS011;10957;50.968;6.828;2022-10-26T10:07:34;6.97;;;6.68;;
21589;SDS011;10957;50.968;6.828;2022-10-26T10:12:35;7.40;;;7.00;;
21589;SDS011;10957;50.968;6.828;2022-10-26T10:17:35;7.00;;;6.70;;
21589;SDS011;10957;50.968;6.828;2022-10-26T10:22:51;7.70;;;7.10;;
21589;SDS011;10957;50.968;6.828;2022-10-26T10:28:18;7.97;;;7.30;;
21589;SDS011;10957;50.968;6.828;2022-10-26T10:33:21;6.50;;;6.20;;
21589;SDS011;10957;50.968;6.828;2022-10-26T10:38:35;6.85;;;6.53;;
21589;SDS011;10957;50.968;6.828;2022-10-26T10:43:55;6.80;;;6.50;;
21589;SDS011;10957;50.968;6.828;2022-10-26T10:49:05;6.40;;;6.10;;
21589;SDS011;10957;50.968;6.828;2022-10-26T10:54:20;6.25;;;5.95;;
21589;SDS011;10957;50.968;6.828;2022-10-26T11:10:07;6.55;;;6.25;;
21589;SDS011;10957;50.968;6.828;2022-10-26T11:15:16;6.40;;;6.10;;
21589;SDS011;10957;50.968;6.828;2022-10-26T11:20:23;5.97;;;5.68;;
21589;SDS011;10957;50.968;6.828;2022-10-26T11:25:37;6.57;;;6.28;;
21589;SDS011;10957;50.968;6.828;2022-10-26T11:30:45;6.20;;;5.90;;
21589;SDS011;10957;50.968;6.828;2022-10-26T11:35:51;7.82;;;7.43;;
21589;SDS011;10957;50.968;6.828;2022-10-26T11:40:59;7.90;;;7.50;;
21589;SDS011;10957;50.968;6.828;2022-10-26T11:46:20;9.65;;;7.57;;
21589;SDS011;10957;50.968;6.828;2022-10-26T11:51:40;5.97;;;5.68;;
21589;SDS011;10957;50.968;6.828;2022-10-26T11:56:58;6.10;;;5.80;;
21589;SDS011;10957;50.968;6.828;2022-10-26T12:07:07;6.53;;;6.22;;
21589;SDS011;10957;50.968;6.828;2022-10-26T12:12:41;6.78;;;6.47;;
21589;SDS011;10957;50.968;6.828;2022-10-26T12:18:01;7.40;;;7.00;;
21589;SDS011;10957;50.968;6.828;2022-10-26T12:23:12;8.70;;;8.10;;
21589;SDS011;10957;50.968;6.828;2022-10-26T12:28:36;7.63;;;7.20;;
21589;SDS011;10957;50.968;6.828;2022-10-26T12:33:47;7.60;;;7.20;;
21589;SDS011;10957;50.968;6.828;2022-10-26T12:38:56;11.65;;;7.30;;
21589;SDS011;10957;50.968;6.828;2022-10-26T12:43:58;7.15;;;6.85;;
21589;SDS011;10957;50.968;6.828;2022-10-26T12:49:03;6.90;;;6.60;;
21589;SDS011;10957;50.968;6.828;2022-10-26T12:54:22;7.20;;;6.90;;
21589;SDS011;10957;50.968;6.828;2022-10-26T12:59:42;7.18;;;6.85;;
21589;SDS011;10957;50.968;6.828;2022-10-26T13:15:56;6.60;;;6.30;;
21589;SDS011;10957;50.968;6.828;2022-10-26T13:26:17;6.97;;;6.68;;
21589;SDS011;10957;50.968;6.828;2022-10-26T13:36:37;6.75;;;6.45;;
21589;SDS011;10957;50.968;6.828;2022-10-26T13:41:58;7.10;;;6.70;;
21589;SDS011;10957;50.968;6.828;2022-10-26T13:47:01;6.90;;;6.60;;
21589;SDS011;10957;50.968;6.828;2022-10-26T13:52:11;6.95;;;6.65;;
21589;SDS011;10957;50.968;6.828;2022-10-26T14:02:42;7.30;;;6.90;;
21589;SDS011;10957;50.968;6.828;2022-10-26T14:07:52;7.35;;;7.03;;
21589;SDS011;10957;50.968;6.828;2022-10-26T14:12:56;7.45;;;6.95;;
21589;SDS011;10957;50.968;6.828;2022-10-26T14:17:57;7.18;;;6.78;;
21589;SDS011;10957;50.968;6.828;2022-10-26T14:23:00;7.38;;;6.72;;
21589;SDS011;10957;50.968;6.828;2022-10-26T14:28:01;6.30;;;6.00;;
21589;SDS011;10957;50.968;6.828;2022-10-26T14:33:15;7.20;;;6.70;;
21589;SDS011;10957;50.968;6.828;2022-10-26T14:38:23;6.70;;;6.40;;
21589;SDS011;10957;50.968;6.828;2022-10-26T14:43:26;6.60;;;6.30;;
21589;SDS011;10957;50.968;6.828;2022-10-26T14:48:27;5.70;;;5.50;;
21589;SDS011;10957;50.968;6.828;2022-10-26T14:53:31;6.00;;;5.70;;
21589;SDS011;10957;50.968;6.828;2022-10-26T14:58:39;6.93;;;6.43;;
21589;SDS011;10957;50.968;6.828;2022-10-26T15:03:41;6.32;;;6.03;;
21589;SDS011;10957;50.968;6.828;2022-10-26T15:08:46;5.63;;;5.43;;
21589;SDS011;10957;50.968;6.828;2022-10-26T15:13:48;5.90;;;5.60;;
21589;SDS011;10957;50.968;6.828;2022-10-26T15:18:50;5.70;;;5.50;;
21589;SDS011;10957;50.968;6.828;2022-10-26T15:23:53;6.13;;;5.78;;
21589;SDS011;10957;50.968;6.828;2022-10-26T15:28:55;5.55;;;5.35;;
21589;SDS011;10957;50.968;6.828;2022-10-26T15:39:05;6.10;;;5.80;;
21589;SDS011;10957;50.968;6.828;2022-10-26T15:44:08;6.30;;;6.00;;
21589;SDS011;10957;50.968;6.828;2022-10-26T15:49:16;5.90;;;5.60;;
21589;SDS011;10957;50.968;6.828;2022-10-26T15:54:19;6.35;;;6.05;;
21589;SDS011;10957;50.968;6.828;2022-10-26T15:59:20;5.70;;;5.50;;
21589;SDS011;10957;50.968;6.828;2022-10-26T16:04:20;6.05;;;5.75;;
21589;SDS011;10957;50.968;6.828;2022-10-26T16:09:21;6.55;;;6.00;;
21589;SDS011;10957;50.968;6.828;2022-10-26T16:14:22;6.50;;;6.20;;
21589;SDS011;10957;50.968;6.828;2022-10-26T16:19:23;6.90;;;6.22;;
21589;SDS011;10957;50.968;6.828;2022-10-26T16:24:23;6.45;;;6.10;;
21589;SDS011;10957;50.968;6.828;2022-10-26T16:29:26;6.25;;;5.95;;
21589;SDS011;10957;50.968;6.828;2022-10-26T16:34:26;6.05;;;5.75;;
21589;SDS011;10957;50.968;6.828;2022-10-26T16:39:27;6.65;;;6.25;;
21589;SDS011;10957;50.968;6.828;2022-10-26T16:44:28;6.90;;;6.60;;
21589;SDS011;10957;50.968;6.828;2022-10-26T16:49:29;7.00;;;6.70;;
21589;SDS011;10957;50.968;6.828;2022-10-26T16:54:29;6.78;;;6.43;;
21589;SDS011;10957;50.968;6.828;2022-10-26T16:59:30;6.68;;;6.38;;
21589;SDS011;10957;50.968;6.828;2022-10-26T17:04:31;6.85;;;6.55;;
21589;SDS011;10957;50.968;6.828;2022-10-26T17:09:31;6.65;;;6.35;;
21589;SDS011;10957;50.968;6.828;2022-10-26T17:14:32;6.60;;;6.30;;
21589;SDS011;10957;50.968;6.828;2022-10-26T17:19:33;6.70;;;6.40;;
21589;SDS011;10957;50.968;6.828;2022-10-26T17:24:35;7.20;;;6.80;;
21589;SDS011;10957;50.968;6.828;2022-10-26T17:29:35;6.60;;;6.30;;
21589;SDS011;10957;50.968;6.828;2022-10-26T17:34:36;6.30;;;6.00;;
21589;SDS011;10957;50.968;6.828;2022-10-26T17:39:37;6.60;;;6.30;;
21589;SDS011;10957;50.968;6.828;2022-10-26T17:44:37;7.05;;;6.65;;
21589;SDS011;10957;50.968;6.828;2022-10-26T17:49:38;6.60;;;6.30;;
21589;SDS011;10957;50.968;6.828;2022-10-26T17:54:39;6.47;;;6.18;;
21589;SDS011;10957;50.968;6.828;2022-10-26T17:59:40;6.57;;;6.28;;
21589;SDS011;10957;50.968;6.828;2022-10-26T18:04:40;6.30;;;5.90;;
21589;SDS011;10957;50.968;6.828;2022-10-26T18:09:41;6.40;;;6.10;;
21589;SDS011;10957;50.968;6.828;2022-10-26T18:14:42;6.80;;;6.43;;
21589;SDS011;10957;50.968;6.828;2022-10-26T18:19:42;7.13;;;6.72;;
21589;SDS011;10957;50.968;6.828;2022-10-26T18:24:43;6.68;;;6.38;;
21589;SDS011;10957;50.968;6.828;2022-10-26T18:29:44;6.18;;;5.88;;
21589;SDS011;10957;50.968;6.828;2022-10-26T18:34:44;5.82;;;5.53;;
21589;SDS011;10957;50.968;6.828;2022-10-26T18:39:45;6.00;;;5.70;;
21589;SDS011;10957;50.968;6.828;2022-10-26T18:44:46;6.38;;;6.05;;
21589;SDS011;10957;50.968;6.828;2022-10-26T18:49:47;5.85;;;5.57;;
21589;SDS011;10957;50.968;6.828;2022-10-26T18:54:47;6.43;;;6.10;;
21589;SDS011;10957;50.968;6.828;2022-10-26T18:59:52;5.95;;;5.65;;
21589;SDS011;10957;50.968;6.828;2022-10-26T19:04:53;6.25;;;5.95;;
21589;SDS011;10957;50.968;6.828;2022-10-26T19:09:57;5.60;;;5.40;;
21589;SDS011;10957;50.968;6.828;2022-10-26T19:14:58;5.90;;;5.60;;
21589;SDS011;10957;50.968;6.828;2022-10-26T19:19:59;5.80;;;5.55;;
21589;SDS011;10957;50.968;6.828;2022-10-26T19:25:00;5.22;;;5.03;;
21589;SDS011;10957;50.968;6.828;2022-10-26T19:30:02;5.78;;;5.47;;
21589;SDS011;10957;50.968;6.828;2022-10-26T19:35:03;6.20;;;5.80;;
21589;SDS011;10957;50.968;6.828;2022-10-26T19:40:05;5.80;;;5.50;;
21589;SDS011;10957;50.968;6.828;2022-10-26T19:45:06;6.88;;;6.32;;
21589;SDS011;10957;50.968;6.828;2022-10-26T19:50:07;5.93;;;5.57;;
21589;SDS011;10957;50.968;6.828;2022-10-26T19:55:08;5.55;;;5.35;;
21589;SDS011;10957;50.968;6.828;2022-10-26T20:00:09;5.50;;;5.30;;
21589;SDS011;10957;50.968;6.828;2022-10-26T20:05:12;5.45;;;5.25;;
21589;SDS011;10957;50.968;6.828;2022-10-26T20:10:13;5.30;;;5.10;;
21589;SDS011;10957;50.968;6.828;2022-10-26T20:15:14;6.68;;;6.28;;
21589;SDS011;10957;50.968;6.828;2022-10-26T20:20:15;6.18;;;5.88;;
21589;SDS011;10957;50.968;6.828;2022-10-26T20:25:16;6.30;;;6.00;;
21589;SDS011;10957;50.968;6.828;2022-10-26T20:30:16;5.95;;;5.65;;
21589;SDS011;10957;50.968;6.828;2022-10-26T20:35:17;6.40;;;6.10;;
21589;SDS011;10957;50.968;6.828;2022-10-26T20:40:18;6.43;;;6.13;;
21589;SDS011;10957;50.968;6.828;2022-10-26T20:45:25;7.55;;;6.95;;
21589;SDS011;10957;50.968;6.828;2022-10-26T20:50:28;6.90;;;6.60;;
21589;SDS011;10957;50.968;6.828;2022-10-26T20:55:40;6.40;;;6.10;;
21589;SDS011;10957;50.968;6.828;2022-10-26T21:00:45;6.40;;;6.10;;
21589;SDS011;10957;50.968;6.828;2022-10-26T21:05:51;6.20;;;5.90;;
21589;SDS011;10957;50.968;6.828;2022-10-26T21:10:53;6.93;;;6.57;;
21589;SDS011;10957;50.968;6.828;2022-10-26T21:15:54;7.45;;;7.05;;
21589;SDS011;10957;50.968;6.828;2022-10-26T21:20:56;7.00;;;6.60;;
21589;SDS011;10957;50.968;6.828;2022-10-26T21:25:58;6.65;;;6.35;;
21589;SDS011;10957;50.968;6.828;2022-10-26T21:31:03;7.68;;;7.30;;
21589;SDS011;10957;50.968;6.828;2022-10-26T21:36:06;6.90;;;6.60;;
21589;SDS011;10957;50.968;6.828;2022-10-26T21:41:18;7.30;;;7.00;;
21589;SDS011;10957;50.968;6.828;2022-10-26T21:46:19;8.77;;;8.38;;
21589;SDS011;10957;50.968;6.828;2022-10-26T21:51:20;8.15;;;7.70;;
21589;SDS011;10957;50.968;6.828;2022-10-26T21:56:21;7.95;;;7.55;;
21589;SDS011;10957;50.968;6.828;2022-10-26T22:01:22;9.35;;;8.85;;
21589;SDS011;10957;50.968;6.828;2022-10-26T22:06:22;7.35;;;7.05;;
21589;SDS011;10957;50.968;6.828;2022-10-26T22:11:23;8.32;;;7.93;;
21589;SDS011;10957;50.968;6.828;2022-10-26T22:16:26;9.40;;;8.90;;
21589;SDS011;10957;50.968;6.828;2022-10-26T22:21:30;8.75;;;8.25;;
21589;SDS011;10957;50.968;6.828;2022-10-26T22:26:34;8.82;;;8.25;;
21589;SDS011;10957;50.968;6.828;2022-10-26T22:31:37;8.40;;;8.00;;
21589;SDS011;10957;50.968;6.828;2022-10-26T22:36:40;7.70;;;7.30;;
21589;SDS011;10957;50.968;6.828;2022-10-26T22:41:41;8.45;;;8.00;;
21589;SDS011;10957;50.968;6.828;2022-10-26T22:46:41;7.90;;;7.50;;
21589;SDS011;10957;50.968;6.828;2022-10-26T22:51:42;8.20;;;7.80;;
21589;SDS011;10957;50.968;6.828;2022-10-26T22:56:43;8.20;;;7.80;;
21589;SDS011;10957;50.968;6.828;2022-10-26T23:01:44;9.10;;;8.60;;
21589;SDS011;10957;50.968;6.828;2022-10-26T23:06:47;8.85;;;8.45;;
21589;SDS011;10957;50.968;6.828;2022-10-26T23:11:48;9.00;;;8.60;;
21589;SDS011;10957;50.968;6.828;2022-10-26T23:16:49;8.45;;;8.05;;
21589;SDS011;10957;50.968;6.828;2022-10-26T23:21:50;8.80;;;8.40;;
21589;SDS011;10957;50.968;6.828;2022-10-26T23:26:50;8.73;;;8.32;;
21589;SDS011;10957;50.968;6.828;2022-10-26T23:31:51;8.85;;;8.45;;
21589;SDS011;10957;50.968;6.828;2022-10-26T23:36:52;8.30;;;7.90;;
21589;SDS011;10957;50.968;6.828;2022-10-26T23:41:52;8.85;;;8.40;;
21589;SDS011;10957;50.968;6.828;2022-10-26T23:46:53;9.05;;;8.30;;
21589;SDS011;10957;50.968;6.828;2022-10-26T23:51:54;8.50;;;8.10;;
21589;SDS011;10957;50.968;6.828;2022-10-26T23:56:54;8.55;;;8.15;;
